createdAt,value
2022-11-22T00:00:48.316Z,98713.38
2022-11-22T00:03:17.094Z,98698.41
2022-11-22T00:05:43.711Z,98699.28
2022-11-22T00:08:12.056Z,98699.22
2022-11-22T00:10:41.126Z,98687.56
2022-11-22T00:13:07.872Z,98682.06
2022-11-22T00:15:34.781Z,98681.38
2022-11-22T00:18:03.671Z,98681.72
2022-11-22T00:20:33.024Z,98691.97
2022-11-22T00:23:05.990Z,98676.78
2022-11-22T00:25:32.964Z,98680.50
2022-11-22T00:28:00.230Z,98671.41
2022-11-22T00:30:26.828Z,98666.00
2022-11-22T00:32:53.458Z,98660.16
2022-11-22T00:35:20.494Z,98667.00
2022-11-22T00:37:47.424Z,98665.41
2022-11-22T00:40:17.220Z,98668.66
2022-11-22T00:42:43.993Z,98678.94
2022-11-22T00:45:10.950Z,98659.88
2022-11-22T00:47:40.697Z,98665.22
2022-11-22T00:50:07.351Z,98663.41
2022-11-22T00:52:33.955Z,98664.75
2022-11-22T00:55:01.004Z,98668.13
2022-11-22T00:57:27.900Z,98660.31
2022-11-22T00:59:58.310Z,98663.84
2022-11-22T01:02:24.985Z,98687.75
2022-11-22T01:04:52.499Z,98692.88
2022-11-22T01:07:19.243Z,98704.63
2022-11-22T01:09:46.062Z,98708.38
2022-11-22T01:12:12.928Z,98699.03
2022-11-22T01:14:40.108Z,98709.69
2022-11-22T01:17:07.227Z,98701.22
2022-11-22T01:19:36.984Z,98707.00
2022-11-22T01:22:03.522Z,98701.84
2022-11-22T01:24:30.427Z,98706.88
2022-11-22T01:26:57.411Z,98713.09
2022-11-22T01:29:24.237Z,98717.75
2022-11-22T01:31:51.164Z,98712.28
2022-11-22T01:34:19.205Z,98718.06
2022-11-22T01:36:48.517Z,98724.19
2022-11-22T01:39:15.477Z,98720.81
2022-11-22T01:41:42.505Z,98718.47
2022-11-22T01:44:25.037Z,98716.84
2022-11-22T01:47:02.903Z,98718.44
2022-11-22T01:49:55.440Z,98724.78
2022-11-22T01:52:25.712Z,98733.09
2022-11-22T01:54:58.441Z,98726.94
2022-11-22T01:57:30.380Z,98724.75
2022-11-22T02:00:02.583Z,98728.72
2022-11-22T02:02:33.702Z,98739.03
2022-11-22T02:05:04.347Z,98740.97
2022-11-22T02:07:43.478Z,98739.13
2022-11-22T02:10:11.265Z,98740.19
2022-11-22T02:12:39.015Z,98741.28
2022-11-22T02:15:08.116Z,98743.53
2022-11-22T02:17:34.761Z,98741.16
2022-11-22T02:20:07.140Z,98734.91
2022-11-22T02:22:44.338Z,98747.06
2022-11-22T02:25:33.085Z,98744.63
2022-11-22T02:28:00.120Z,98749.16
2022-11-22T02:30:26.855Z,98747.16
2022-11-22T02:32:53.689Z,98752.41
2022-11-22T02:35:24.068Z,98754.00
2022-11-22T02:38:03.007Z,98758.75
2022-11-22T02:40:34.825Z,98765.19
2022-11-22T02:43:37.138Z,98764.09
2022-11-22T02:46:06.451Z,98761.38
2022-11-22T02:48:33.641Z,98764.59
2022-11-22T02:51:01.104Z,98769.91
2022-11-22T02:53:30.704Z,98770.63
2022-11-22T02:55:58.021Z,98764.88
2022-11-22T02:58:24.567Z,98767.75
2022-11-22T03:00:51.195Z,98767.75
2022-11-22T03:03:17.890Z,98779.41
2022-11-22T03:05:44.798Z,98772.38
2022-11-22T03:08:11.453Z,98775.78
2022-11-22T03:10:38.146Z,98780.44
2022-11-22T03:13:04.672Z,98783.19
2022-11-22T03:15:31.211Z,98793.28
2022-11-22T03:18:01.616Z,98797.06
2022-11-22T03:20:29.190Z,98791.13
2022-11-22T03:22:58.799Z,98796.47
2022-11-22T03:25:25.845Z,98793.28
2022-11-22T03:27:52.602Z,98795.25
2022-11-22T03:30:19.440Z,98787.00
2022-11-22T03:32:46.036Z,98792.84
2022-11-22T03:35:13.033Z,98787.00
2022-11-22T03:37:39.759Z,98775.81
2022-11-22T03:40:07.454Z,98792.97
2022-11-22T03:42:34.282Z,98806.66
2022-11-22T03:45:01.220Z,98804.84
2022-11-22T03:47:28.128Z,98813.19
2022-11-22T03:49:54.842Z,98814.53
2022-11-22T03:52:21.508Z,98804.94
2022-11-22T03:54:48.107Z,98803.34
2022-11-22T03:57:16.998Z,98807.34
2022-11-22T03:59:43.959Z,98805.91
2022-11-22T04:02:12.735Z,98814.09
2022-11-22T04:04:39.512Z,98813.19
2022-11-22T04:07:06.802Z,98817.91
2022-11-22T04:09:33.952Z,98812.50
2022-11-22T04:12:00.800Z,98819.44
2022-11-22T04:14:46.085Z,98826.34
2022-11-22T04:17:14.090Z,98832.53
2022-11-22T04:20:01.351Z,98829.53
2022-11-22T04:22:29.822Z,98826.94
2022-11-22T04:25:14.594Z,98838.13
2022-11-22T04:27:41.329Z,98834.34
2022-11-22T04:30:08.404Z,98833.31
2022-11-22T04:32:47.416Z,98849.91
2022-11-22T04:35:15.910Z,98843.09
2022-11-22T04:37:43.366Z,98846.44
2022-11-22T04:40:10.806Z,98839.31
2022-11-22T04:43:03.658Z,98844.47
2022-11-22T04:45:30.512Z,98855.25
2022-11-22T04:48:00.296Z,98857.91
2022-11-22T04:50:47.551Z,98849.31
2022-11-22T04:53:15.585Z,98859.97
2022-11-22T04:55:44.721Z,98854.06
2022-11-22T04:58:12.054Z,98844.28
2022-11-22T05:00:39.060Z,98842.06
2022-11-22T05:03:06.463Z,98842.66
2022-11-22T05:05:38.443Z,98846.16
2022-11-22T05:08:07.072Z,98859.78
2022-11-22T05:10:55.795Z,98852.63
2022-11-22T05:13:37.569Z,98859.38
2022-11-22T05:16:06.448Z,98856.72
2022-11-22T05:18:33.435Z,98863.13
2022-11-22T05:21:08.317Z,98863.59
2022-11-22T05:23:56.427Z,98861.91
2022-11-22T05:26:24.181Z,98860.53
2022-11-22T05:28:51.094Z,98869.28
2022-11-22T05:31:23.563Z,98865.50
2022-11-22T05:33:52.410Z,98871.31
2022-11-22T05:36:20.022Z,98881.66
2022-11-22T05:38:47.047Z,98881.88
2022-11-22T05:41:15.562Z,98875.75
2022-11-22T05:43:42.488Z,98881.09
2022-11-22T05:46:10.498Z,98881.59
2022-11-22T05:48:39.702Z,98883.72
2022-11-22T05:51:07.739Z,98887.72
2022-11-22T05:53:35.789Z,98893.50
2022-11-22T05:56:10.561Z,98899.84
2022-11-22T05:58:38.100Z,98907.53
2022-11-22T06:01:09.058Z,98897.88
2022-11-22T06:03:39.047Z,98904.00
2022-11-22T06:06:07.173Z,98914.16
2022-11-22T06:08:36.762Z,98908.66
2022-11-22T06:11:14.433Z,98910.47
2022-11-22T06:13:44.088Z,98911.03
2022-11-22T06:16:11.639Z,98918.28
2022-11-22T06:18:38.740Z,98922.84
2022-11-22T06:21:10.566Z,98918.88
2022-11-22T06:23:37.943Z,98921.47
2022-11-22T06:26:10.880Z,98920.19
2022-11-22T06:28:38.852Z,98923.00
2022-11-22T06:31:12.298Z,98922.28
2022-11-22T06:33:40.006Z,98935.44
2022-11-22T06:36:12.098Z,98941.31
2022-11-22T06:38:40.051Z,98943.97
2022-11-22T06:41:12.200Z,98946.13
2022-11-22T06:43:46.697Z,98956.22
2022-11-22T06:46:15.699Z,98954.53
2022-11-22T06:48:42.982Z,98967.22
2022-11-22T06:51:12.120Z,98963.97
2022-11-22T06:53:47.225Z,98974.09
2022-11-22T06:56:23.577Z,98968.19
2022-11-22T06:58:52.013Z,98974.03
2022-11-22T07:01:24.199Z,98975.91
2022-11-22T07:03:51.701Z,98986.88
2022-11-22T07:06:19.485Z,98991.69
2022-11-22T07:08:47.841Z,98991.69
2022-11-22T07:11:20.574Z,98985.00
2022-11-22T07:13:48.249Z,98993.41
2022-11-22T07:16:17.512Z,98989.16
2022-11-22T07:18:44.764Z,98996.66
2022-11-22T07:21:15.417Z,98997.69
2022-11-22T07:23:44.428Z,99004.53
2022-11-22T07:26:11.712Z,99001.59
2022-11-22T07:28:38.581Z,99010.38
2022-11-22T07:31:08.090Z,99006.34
2022-11-22T07:33:35.237Z,99008.75
2022-11-22T07:36:10.312Z,99015.47
2022-11-22T07:38:37.363Z,99028.50
2022-11-22T07:41:04.357Z,99024.75
2022-11-22T07:43:31.336Z,99032.47
2022-11-22T07:46:02.784Z,99041.91
2022-11-22T07:48:29.516Z,99033.16
2022-11-22T07:50:56.147Z,99040.59
2022-11-22T07:53:23.290Z,99035.78
2022-11-22T07:55:50.224Z,99039.75
2022-11-22T07:58:16.771Z,99038.41
2022-11-22T08:00:43.390Z,99042.94
2022-11-22T08:03:13.138Z,99040.00
2022-11-22T08:05:42.260Z,99050.94
2022-11-22T08:08:08.866Z,99060.53
2022-11-22T08:10:35.483Z,99062.63
2022-11-22T08:13:02.067Z,99064.75
2022-11-22T08:15:28.859Z,99061.09
2022-11-22T08:17:55.941Z,99071.81
2022-11-22T08:20:23.027Z,99078.19
2022-11-22T08:22:52.672Z,99081.78
2022-11-22T08:25:19.614Z,99088.41
2022-11-22T08:27:46.143Z,99085.66
2022-11-22T08:30:15.576Z,99077.97
2022-11-22T08:32:42.267Z,99080.69
2022-11-22T08:35:09.773Z,99080.09
2022-11-22T08:37:39.865Z,99080.59
2022-11-22T08:40:07.488Z,99078.72
2022-11-22T08:42:34.271Z,99082.94
2022-11-22T08:45:00.996Z,99087.97
2022-11-22T08:47:27.723Z,99078.88
2022-11-22T08:49:54.758Z,99079.78
2022-11-22T08:52:21.524Z,99078.56
2022-11-22T08:54:48.389Z,99077.91
2022-11-22T08:57:15.293Z,99082.69
2022-11-22T08:59:42.102Z,99086.75
2022-11-22T09:02:10.038Z,99088.56
2022-11-22T09:04:36.746Z,99090.53
2022-11-22T09:09:50.688Z,99092.81
2022-11-22T09:12:17.906Z,99083.31
2022-11-22T09:14:44.510Z,99071.88
2022-11-22T09:17:17.325Z,99069.06
2022-11-22T09:19:44.759Z,99071.81
2022-11-22T09:22:11.528Z,99067.03
2022-11-22T09:24:38.523Z,99076.56
2022-11-22T09:27:05.856Z,99079.44
2022-11-22T09:29:33.049Z,99080.50
2022-11-22T09:31:59.996Z,99082.28
2022-11-22T09:34:26.823Z,99081.00
2022-11-22T09:36:56.940Z,99088.31
2022-11-22T09:39:23.944Z,99090.06
2022-11-22T09:41:59.466Z,99078.63
2022-11-22T09:44:37.984Z,99076.91
2022-11-22T09:47:29.601Z,99064.91
2022-11-22T09:50:05.183Z,99054.13
2022-11-22T09:52:38.698Z,99057.88
2022-11-22T09:55:58.004Z,99062.50
2022-11-22T09:58:40.391Z,99059.63
2022-11-22T10:01:31.444Z,99051.78
2022-11-22T10:04:03.102Z,99045.19
2022-11-22T10:06:35.439Z,99048.97
2022-11-22T10:09:11.906Z,99046.81
2022-11-22T10:12:06.601Z,99044.59
2022-11-22T10:15:10.912Z,99052.63
2022-11-22T10:17:56.018Z,99044.59
2022-11-22T10:20:26.427Z,99050.03
2022-11-22T10:22:54.102Z,99061.53
2022-11-22T10:25:40.698Z,99055.69
2022-11-22T10:28:31.257Z,99065.09
2022-11-22T10:31:12.080Z,99062.88
2022-11-22T10:33:47.239Z,99060.16
2022-11-22T10:36:26.638Z,99063.41
2022-11-22T10:39:10.170Z,99066.47
2022-11-22T10:41:58.857Z,99059.31
2022-11-22T10:44:41.348Z,99060.84
2022-11-22T10:47:14.135Z,99062.94
2022-11-22T10:49:52.209Z,99067.78
2022-11-22T10:52:32.458Z,99063.22
2022-11-22T10:55:34.631Z,99055.31
2022-11-22T10:58:13.367Z,99056.91
2022-11-22T11:00:45.204Z,99052.72
2022-11-22T11:03:34.222Z,99065.41
2022-11-22T11:06:26.746Z,99067.22
2022-11-22T11:12:04.147Z,99066.38
2022-11-22T11:15:00.167Z,99057.13
2022-11-22T11:17:31.736Z,99059.91
2022-11-22T11:20:03.116Z,99050.38
2022-11-22T11:23:06.351Z,99055.34
2022-11-22T11:25:40.937Z,99045.97
2022-11-22T11:28:12.894Z,99047.56
2022-11-22T11:31:01.094Z,99036.72
2022-11-22T11:33:38.155Z,99046.84
2022-11-22T11:36:20.206Z,99041.56
2022-11-22T11:38:46.837Z,99045.28
2022-11-22T11:41:31.643Z,99038.63
2022-11-22T11:44:03.256Z,99036.72
2022-11-22T11:46:45.292Z,99036.16
2022-11-22T11:49:18.451Z,99028.75
2022-11-22T11:51:53.566Z,99030.28
2022-11-22T11:54:25.839Z,99021.19
2022-11-22T11:56:58.070Z,99024.50
2022-11-22T11:59:50.252Z,99027.22
2022-11-22T12:02:24.470Z,99020.53
2022-11-22T12:04:51.163Z,99023.22
2022-11-22T12:07:28.529Z,99008.53
2022-11-22T12:09:55.963Z,99020.41
2022-11-22T12:12:37.997Z,99016.84
2022-11-22T12:15:29.199Z,99013.88
2022-11-22T12:18:07.375Z,99009.44
2022-11-22T12:21:07.517Z,99004.34
2022-11-22T12:23:51.252Z,99001.38
2022-11-22T12:26:19.024Z,98997.97
2022-11-22T12:28:46.270Z,99000.75
2022-11-22T12:31:39.727Z,98988.31
2022-11-22T12:34:13.967Z,98995.88
2022-11-22T12:36:54.506Z,98997.47
2022-11-22T12:39:29.482Z,98994.91
2022-11-22T12:42:23.189Z,98994.03
2022-11-22T12:45:01.755Z,98999.06
2022-11-22T12:47:38.715Z,98991.72
2022-11-22T12:50:14.475Z,98990.41
2022-11-22T12:52:47.547Z,98990.13
2022-11-22T12:55:26.471Z,98991.84
2022-11-22T12:57:59.385Z,98992.44
2022-11-22T13:00:29.697Z,98979.69
2022-11-22T13:02:59.468Z,98993.81
2022-11-22T13:05:31.602Z,98985.28
2022-11-22T13:08:13.501Z,98989.44
2022-11-22T13:10:48.201Z,98984.09
2022-11-22T13:13:38.871Z,98984.28
2022-11-22T13:16:11.254Z,98983.09
2022-11-22T13:18:44.007Z,98981.31
2022-11-22T13:21:19.618Z,98988.59
2022-11-22T13:24:08.075Z,98989.03
2022-11-22T13:27:03.324Z,98998.56
2022-11-22T13:29:33.393Z,98990.44
2022-11-22T13:32:12.510Z,98989.03
2022-11-22T13:34:41.116Z,98990.00
2022-11-22T13:37:16.347Z,98991.16
2022-11-22T13:39:47.068Z,98995.34
2022-11-22T13:42:25.515Z,98989.38
2022-11-22T13:45:07.964Z,98997.34
2022-11-22T13:47:38.436Z,98991.78
2022-11-22T13:50:44.328Z,98998.72
2022-11-22T13:53:19.972Z,98991.16
2022-11-22T13:55:47.107Z,98989.50
2022-11-22T13:58:25.955Z,98987.50
2022-11-22T14:00:56.991Z,98988.81
2022-11-22T14:03:34.145Z,98984.25
2022-11-22T14:06:14.302Z,98987.81
2022-11-22T14:08:41.450Z,98989.38
2022-11-22T14:11:26.307Z,98982.44
2022-11-22T14:14:16.975Z,98992.00
2022-11-22T14:16:57.607Z,98992.06
2022-11-22T14:19:50.350Z,98992.94
2022-11-22T14:22:19.231Z,99002.22
2022-11-22T14:24:56.128Z,98992.34
2022-11-22T14:27:48.732Z,99004.78
2022-11-22T14:30:22.082Z,99003.78
2022-11-22T14:32:49.871Z,99005.41
2022-11-22T14:35:29.268Z,99002.94
2022-11-22T14:38:28.427Z,99001.31
2022-11-22T14:41:27.315Z,99009.66
2022-11-22T14:43:58.045Z,99011.13
2022-11-22T14:46:51.757Z,99011.19
2022-11-22T14:49:43.239Z,99019.84
2022-11-22T14:52:26.353Z,99020.59
2022-11-22T14:54:57.405Z,99022.31
2022-11-22T14:57:26.549Z,99021.09
2022-11-22T15:00:15.278Z,99021.59
2022-11-22T15:02:51.014Z,99030.88
2022-11-22T15:09:14.763Z,99041.06
2022-11-22T15:09:15.080Z,99041.06
2022-11-22T15:11:33.911Z,99038.63
2022-11-22T15:14:25.679Z,99044.78
2022-11-22T15:59:45.240Z,99099.69
2022-11-22T16:02:19.701Z,99104.53
2022-11-22T16:06:04.545Z,99107.78
2022-11-22T16:07:49.693Z,99116.94
2022-11-22T16:10:37.228Z,99112.63
2022-11-22T16:13:19.263Z,99113.41
2022-11-22T16:16:03.010Z,99110.53
2022-11-22T16:18:30.084Z,99120.97
2022-11-22T16:21:04.040Z,99119.69
2022-11-22T16:23:33.822Z,99121.84
2022-11-22T16:26:13.633Z,99128.03
2022-11-22T16:28:40.280Z,99119.81
2022-11-22T16:31:18.995Z,99129.91
2022-11-22T16:33:46.234Z,99128.91
2022-11-22T16:36:14.788Z,99133.16
2022-11-22T16:38:42.703Z,99135.31
2022-11-22T16:41:25.718Z,99130.81
2022-11-22T16:43:55.850Z,99133.16
2022-11-22T16:46:22.863Z,99134.38
2022-11-22T16:48:50.503Z,99140.47
2022-11-22T16:51:25.240Z,99146.59
2022-11-22T16:53:55.784Z,99146.91
2022-11-22T16:56:27.652Z,99152.19
2022-11-22T16:58:58.488Z,99160.81
2022-11-22T17:01:31.062Z,99167.22
2022-11-22T17:03:59.430Z,99160.03
2022-11-22T17:06:28.588Z,99164.53
2022-11-22T17:08:57.536Z,99166.16
2022-11-22T17:11:26.913Z,99166.69
2022-11-22T17:13:54.506Z,99171.34
2022-11-22T17:16:21.435Z,99170.03
2022-11-22T17:18:48.466Z,99163.59
2022-11-22T17:21:18.080Z,99157.47
2022-11-22T17:23:45.611Z,99150.78
2022-11-22T17:26:12.314Z,99156.69
2022-11-22T17:28:38.945Z,99162.22
2022-11-22T17:31:13.721Z,99171.56
2022-11-22T17:33:40.709Z,99164.66
2022-11-22T17:36:21.068Z,99177.75
2022-11-22T17:38:48.001Z,99170.03
2022-11-22T17:41:14.657Z,99169.72
2022-11-22T17:43:41.486Z,99161.41
2022-11-22T17:46:08.239Z,99155.56
2022-11-22T17:48:35.031Z,99163.66
2022-11-22T17:51:11.558Z,99164.19
2022-11-22T17:53:39.195Z,99173.81
2022-11-22T17:56:11.250Z,99173.81
2022-11-22T17:58:39.493Z,99173.50
2022-11-22T18:01:09.153Z,99172.44
2022-11-22T18:03:36.141Z,99171.72
2022-11-22T18:06:03.282Z,99170.63
2022-11-22T18:08:30.588Z,99182.97
2022-11-22T18:10:59.705Z,99178.97
2022-11-22T18:13:27.988Z,99191.56
2022-11-22T18:16:01.648Z,99192.88
2022-11-22T18:18:54.982Z,99186.25
2022-11-22T18:21:17.665Z,99183.28
2022-11-22T18:23:45.294Z,99194.25
2022-11-22T18:29:32.370Z,99189.72
2022-11-22T18:31:54.353Z,99189.78
2022-11-22T18:34:24.778Z,99191.91
2022-11-22T18:37:07.526Z,99188.44
2022-11-22T18:39:39.381Z,99187.38
2022-11-22T18:42:13.411Z,99171.34
2022-11-22T18:44:40.010Z,99165.75
2022-11-22T18:47:07.442Z,99176.72
2022-11-22T18:49:35.110Z,99181.00
2022-11-22T18:52:02.063Z,99179.38
2022-11-22T18:54:28.885Z,99187.16
2022-11-22T18:56:55.715Z,99194.84
2022-11-22T18:59:22.299Z,99193.31
2022-11-22T19:01:48.971Z,99198.63
2022-11-22T19:04:15.972Z,99183.69
2022-11-22T19:06:43.608Z,99189.53
2022-11-22T19:09:11.116Z,99198.34
2022-11-22T19:11:40.793Z,99192.19
2022-11-22T19:14:07.706Z,99195.94
2022-11-22T19:16:34.765Z,99195.94
2022-11-22T19:19:01.666Z,99197.53
2022-11-22T19:21:29.886Z,99202.34
2022-11-22T19:23:57.439Z,99197.78
2022-11-22T19:26:26.032Z,99204.50
2022-11-22T19:28:56.287Z,99199.69
2022-11-22T19:31:29.470Z,99203.41
2022-11-22T19:33:56.627Z,99203.16
2022-11-22T19:36:30.829Z,99203.97
2022-11-22T19:39:00.184Z,99205.03
2022-11-22T19:41:27.078Z,99200.25
2022-11-22T19:43:55.498Z,99203.72
2022-11-22T19:46:22.171Z,99213.28
2022-11-22T19:48:53.820Z,99211.69
2022-11-22T19:51:21.448Z,99210.38
2022-11-22T19:53:48.261Z,99207.16
2022-11-22T19:56:17.673Z,99217.56
2022-11-22T19:58:49.719Z,99215.19
2022-11-22T20:01:16.773Z,99214.88
2022-11-22T20:03:44.471Z,99210.38
2022-11-22T20:06:13.926Z,99214.13
2022-11-22T20:08:41.123Z,99223.16
2022-11-22T20:11:11.549Z,99230.88
2022-11-22T20:13:40.171Z,99233.31
2022-11-22T20:16:16.545Z,99239.69
2022-11-22T20:18:43.281Z,99231.72
2022-11-22T20:21:10.959Z,99230.63
2022-11-22T20:23:38.375Z,99237.03
2022-11-22T20:26:10.190Z,99238.09
2022-11-22T20:28:38.293Z,99241.59
2022-11-22T20:31:06.214Z,99243.44
2022-11-22T20:33:38.075Z,99249.28
2022-11-22T20:36:06.766Z,99254.63
2022-11-22T20:38:35.415Z,99250.38
2022-11-22T20:41:02.106Z,99256.78
2022-11-22T20:43:31.223Z,99259.19
2022-11-22T20:46:01.662Z,99265.31
2022-11-22T20:48:28.602Z,99271.16
2022-11-22T20:50:55.253Z,99276.25
2022-11-22T20:53:21.909Z,99278.94
2022-11-22T20:55:48.561Z,99275.97
2022-11-22T20:58:15.163Z,99281.84
2022-11-22T21:00:41.806Z,99282.91
2022-11-22T21:03:09.265Z,99288.25
2022-11-22T21:05:36.415Z,99282.91
2022-11-22T21:08:05.424Z,99287.69
2022-11-22T21:10:32.658Z,99294.63
2022-11-22T21:12:59.324Z,99287.69
2022-11-22T21:15:25.988Z,99296.22
2022-11-22T21:18:17.647Z,99297.03
2022-11-22T21:20:42.095Z,99296.22
2022-11-22T21:23:09.294Z,99296.75
2022-11-22T21:25:39.916Z,99304.19
2022-11-22T21:28:09.765Z,99307.41
2022-11-22T21:30:36.832Z,99307.38
2022-11-22T21:33:03.602Z,99309.53
2022-11-22T21:35:30.210Z,99301.03
2022-11-22T21:37:56.895Z,99306.09
2022-11-22T21:40:23.536Z,99299.16
2022-11-22T21:42:50.093Z,99305.03
2022-11-22T21:45:16.803Z,99302.34
2022-11-22T21:47:43.529Z,99303.16
2022-11-22T21:50:11.935Z,99311.94
2022-11-22T21:52:39.014Z,99301.56
2022-11-22T21:55:06.228Z,99304.75
2022-11-22T21:57:34.404Z,99315.16
2022-11-22T22:00:01.153Z,99309.56
2022-11-22T22:02:29.635Z,99306.34
2022-11-22T22:04:56.825Z,99316.19
2022-11-22T22:07:45.102Z,99312.72
2022-11-22T22:10:12.454Z,99319.38
2022-11-22T22:12:47.819Z,99305.81
2022-11-22T22:15:14.512Z,99317.03
2022-11-22T22:17:41.460Z,99320.25
2022-11-22T22:20:08.546Z,99312.22
2022-11-22T22:22:37.446Z,99311.44
2022-11-22T22:25:06.123Z,99317.84
2022-11-22T22:27:33.715Z,99319.13
2022-11-22T22:30:00.764Z,99316.19
2022-11-22T22:32:28.145Z,99314.06
2022-11-22T22:34:58.058Z,99324.75
2022-11-22T22:37:24.689Z,99327.66
2022-11-22T22:39:51.877Z,99329.53
2022-11-22T22:42:19.228Z,99326.09
2022-11-22T22:44:47.554Z,99327.69
2022-11-22T22:47:14.378Z,99338.91
2022-11-22T22:49:40.963Z,99325.84
2022-11-22T22:52:07.616Z,99326.66
2022-11-22T22:54:35.884Z,99333.06
2022-11-22T22:57:08.398Z,99338.41
2022-11-22T22:59:35.307Z,99339.97
2022-11-22T23:02:02.094Z,99349.81
2022-11-22T23:04:28.967Z,99339.41
2022-11-22T23:06:55.676Z,99348.47
2022-11-22T23:09:22.554Z,99338.34
2022-11-22T23:12:07.924Z,99345.81
2022-11-22T23:14:34.542Z,99340.47
2022-11-22T23:17:01.171Z,99352.22
2022-11-22T23:19:27.939Z,99343.13
2022-11-22T23:21:55.208Z,99349.53
2022-11-22T23:24:22.132Z,99349.25
2022-11-22T23:26:49.001Z,99347.97
2022-11-22T23:29:15.593Z,99348.53
2022-11-22T23:31:42.272Z,99349.59
2022-11-22T23:34:11.024Z,99339.47
2022-11-22T23:36:40.982Z,99346.41
2022-11-22T23:39:08.563Z,99339.47
2022-11-22T23:41:35.222Z,99349.06
2022-11-22T23:44:01.933Z,99354.41
2022-11-22T23:46:31.773Z,99346.94
2022-11-22T23:49:00.480Z,99341.59
2022-11-22T23:51:28.570Z,99352.25
2022-11-22T23:53:56.895Z,99345.31
2022-11-22T23:56:24.776Z,99348.53
2022-11-22T23:58:51.948Z,99349.84
